Time;durP1;ratioP1;P1;durP2;ratioP2;P2;SDS_P1;SDS_P2;PMS_P1;PMS_P2;Temp;Humidity;BMP_temperature;BMP_pressure;BME280_temperature;BME280_humidity;BME280_pressure;Samples;Min_cycle;Max_cycle;Signal;HPM_P1;HPM_P2
2022/06/16 00:01:51;;;;;;;2.70;1.70;;;18.60;78.70;;;;;;4948022;29;20038;-34
2022/06/16 00:04:17;;;;;;;3.38;1.85;;;18.60;78.80;;;;;;4948455;28;20078;-35
2022/06/16 00:06:42;;;;;;;3.85;1.83;;;18.50;78.80;;;;;;4947471;29;20039;-36
2022/06/16 00:09:08;;;;;;;4.80;2.10;;;18.50;78.90;;;;;;4947744;29;20031;-33
2022/06/16 00:11:34;;;;;;;2.50;1.80;;;18.50;79.00;;;;;;4947846;28;20187;-35
2022/06/16 00:13:59;;;;;;;2.00;1.80;;;18.40;79.00;;;;;;4947820;28;20505;-35
2022/06/16 00:16:25;;;;;;;3.22;1.80;;;18.40;79.10;;;;;;4948013;29;20027;-32
2022/06/16 00:18:51;;;;;;;3.58;1.70;;;18.40;79.10;;;;;;4947927;28;20543;-34
2022/06/16 00:21:17;;;;;;;2.10;1.73;;;18.40;79.30;;;;;;4946973;29;20446;-34
2022/06/16 00:23:44;;;;;;;3.47;1.77;;;18.30;79.40;;;;;;4948166;28;20138;-34
2022/06/16 00:26:19;;;;;;;2.22;1.45;;;18.30;79.40;;;;;;4947559;28;20027;-33
2022/06/16 00:28:46;;;;;;;2.45;1.80;;;18.30;79.60;;;;;;4947488;28;20023;-33
2022/06/16 00:31:13;;;;;;;2.65;1.92;;;18.20;79.60;;;;;;4947913;28;20113;-34
2022/06/16 00:33:39;;;;;;;4.22;1.52;;;18.20;79.70;;;;;;4947739;29;20087;-34
2022/06/16 00:36:05;;;;;;;3.17;1.70;;;18.20;79.90;;;;;;4947439;28;20031;-34
2022/06/16 00:38:30;;;;;;;2.17;1.83;;;18.10;79.90;;;;;;4947408;28;20031;-34
2022/06/16 00:40:56;;;;;;;2.75;1.70;;;18.00;80.10;;;;;;4947893;29;20356;-34
2022/06/16 00:43:22;;;;;;;1.83;1.60;;;18.00;80.30;;;;;;4946840;29;20051;-34
2022/06/16 00:45:56;;;;;;;2.72;1.98;;;17.90;80.40;;;;;;4947633;29;20545;-33
2022/06/16 00:48:27;;;;;;;9.52;2.17;;;17.80;80.50;;;;;;4947325;28;20023;-34
2022/06/16 00:51:05;;;;;;;3.58;2.13;;;17.80;80.70;;;;;;4946927;29;20092;-34
2022/06/16 00:53:32;;;;;;;3.03;1.63;;;17.70;80.80;;;;;;4946855;28;20167;-33
2022/06/16 00:55:58;;;;;;;2.88;1.85;;;17.70;80.90;;;;;;4911780;28;1051851;-34
2022/06/16 00:58:25;;;;;;;1.88;1.67;;;17.70;81.00;;;;;;4947405;28;20512;-34
2022/06/16 01:00:52;;;;;;;5.05;1.92;;;17.60;81.00;;;;;;4948604;29;20162;-34
2022/06/16 01:04:51;;;;;;;3.17;2.40;;;17.60;81.10;;;;;;4947901;28;20023;-34
2022/06/16 01:06:25;;;;;;;3.00;1.60;;;17.50;81.20;;;;;;4948962;28;20035;-34
2022/06/16 01:09:05;;;;;;;2.83;1.90;;;17.40;81.30;;;;;;4948067;28;20106;-34
2022/06/16 01:14:52;;;;;;;2.58;2.00;;;17.40;81.50;;;;;;4936963;28;20046;-34
2022/06/16 01:17:30;;;;;;;3.92;2.15;;;17.30;81.60;;;;;;4947598;29;20031;-34
2022/06/16 01:20:11;;;;;;;2.67;2.05;;;17.30;81.70;;;;;;4947727;29;20166;-34
2022/06/16 01:23:23;;;;;;;3.03;1.83;;;17.20;81.80;;;;;;4947685;29;20494;-33
2022/06/16 01:25:57;;;;;;;3.35;2.03;;;17.10;81.90;;;;;;4947463;29;20051;-34
2022/06/16 01:28:54;;;;;;;2.08;1.70;;;17.10;82.00;;;;;;4948406;29;20035;-34
2022/06/16 01:31:42;;;;;;;2.97;1.98;;;17.10;82.10;;;;;;4938463;29;20047;-34
2022/06/16 01:34:41;;;;;;;2.35;1.85;;;17.00;82.20;;;;;;4948450;29;20034;-34
2022/06/16 01:37:39;;;;;;;2.58;2.00;;;17.00;82.40;;;;;;4942756;29;20466;-33
2022/06/16 01:40:23;;;;;;;3.65;2.38;;;16.90;82.50;;;;;;4947695;28;20034;-34
2022/06/16 01:43:12;;;;;;;2.65;2.25;;;16.90;82.70;;;;;;4929078;29;20490;-35
2022/06/16 01:46:06;;;;;;;3.08;2.10;;;16.80;82.80;;;;;;4944910;29;20483;-34
2022/06/16 01:48:34;;;;;;;5.85;2.60;;;16.80;82.90;;;;;;4948067;29;20035;-34
2022/06/16 01:51:15;;;;;;;3.58;2.40;;;16.80;82.90;;;;;;4947867;28;20043;-33
2022/06/16 01:53:49;;;;;;;3.65;2.58;;;16.70;83.20;;;;;;4947469;29;20027;-34
2022/06/16 01:56:25;;;;;;;4.47;2.50;;;16.60;83.40;;;;;;4947425;28;20171;-35
2022/06/16 01:59:02;;;;;;;2.63;2.13;;;16.60;83.60;;;;;;4948033;28;20094;-34
2022/06/16 02:01:33;;;;;;;3.15;2.17;;;16.50;84.50;;;;;;4946575;28;20384;-34
2022/06/16 02:04:06;;;;;;;2.20;2.00;;;16.50;84.10;;;;;;4948173;28;20040;-34
2022/06/16 02:06:35;;;;;;;2.97;2.08;;;16.40;84.10;;;;;;4946517;29;20023;-34
2022/06/16 02:09:07;;;;;;;4.97;2.25;;;16.40;84.20;;;;;;4947395;29;20098;-33
2022/06/16 02:11:34;;;;;;;3.20;2.20;;;16.40;84.20;;;;;;4947292;28;20036;-34
2022/06/16 02:14:19;;;;;;;4.18;2.85;;;16.40;84.30;;;;;;4947131;29;20031;-34
2022/06/16 02:16:46;;;;;;;3.95;2.40;;;16.40;85.10;;;;;;4946963;29;20041;-34
2022/06/16 02:19:14;;;;;;;4.95;2.70;;;16.40;84.60;;;;;;4947973;28;20031;-34
2022/06/16 02:21:45;;;;;;;2.15;1.90;;;16.30;84.70;;;;;;4946070;28;20019;-34
2022/06/16 02:24:13;;;;;;;3.85;2.50;;;16.30;84.80;;;;;;4928728;29;20156;-33
2022/06/16 02:26:40;;;;;;;2.35;2.05;;;16.20;84.80;;;;;;4942223;29;20502;-34
2022/06/16 02:29:29;;;;;;;2.67;2.25;;;16.20;85.00;;;;;;4946724;28;20035;-34
2022/06/16 02:32:00;;;;;;;4.25;2.67;;;16.20;85.30;;;;;;4947451;28;20090;-34
2022/06/16 02:34:46;;;;;;;3.40;2.58;;;16.10;85.20;;;;;;4946875;28;20066;-34
2022/06/16 02:37:35;;;;;;;3.25;2.30;;;16.10;85.30;;;;;;4947377;29;20035;-35
2022/06/16 02:40:19;;;;;;;2.42;2.15;;;16.20;85.30;;;;;;4925290;29;20718;-34
2022/06/16 02:43:25;;;;;;;2.65;2.30;;;16.10;85.40;;;;;;4945737;29;20057;-34
2022/06/16 02:46:16;;;;;;;4.07;2.13;;;16.10;85.50;;;;;;4936728;29;20082;-34
2022/06/16 02:48:49;;;;;;;2.90;2.03;;;16.10;85.60;;;;;;4937456;28;20251;-34
2022/06/16 02:51:24;;;;;;;3.17;2.03;;;16.00;85.50;;;;;;4950719;28;20027;-33
2022/06/16 02:56:54;;;;;;;4.18;2.30;;;15.90;85.90;;;;;;4949503;28;20059;-34
2022/06/16 02:59:26;;;;;;;3.53;2.28;;;15.90;86.00;;;;;;4942600;29;20094;-33
2022/06/16 03:02:00;;;;;;;2.25;2.05;;;15.90;86.10;;;;;;4950449;28;20027;-33
2022/06/16 03:04:38;;;;;;;2.92;2.53;;;15.90;86.00;;;;;;4949858;28;20035;-35
2022/06/16 03:07:04;;;;;;;3.05;2.45;;;15.80;86.10;;;;;;4950696;28;20549;-34
2022/06/16 03:09:29;;;;;;;2.80;2.42;;;15.70;86.20;;;;;;4949614;29;20034;-34
2022/06/16 03:11:55;;;;;;;3.90;2.55;;;15.70;86.90;;;;;;4949722;29;20028;-33
2022/06/16 03:14:20;;;;;;;4.72;2.75;;;15.70;86.40;;;;;;4950551;29;20062;-33
2022/06/16 03:16:46;;;;;;;5.03;2.60;;;15.70;86.60;;;;;;4949906;28;20487;-33
2022/06/16 03:19:11;;;;;;;5.95;2.50;;;15.70;86.70;;;;;;4949867;29;20424;-33
2022/06/16 03:21:37;;;;;;;4.50;2.70;;;15.70;86.80;;;;;;4950366;28;20053;-33
2022/06/16 03:24:03;;;;;;;2.83;2.20;;;15.60;86.70;;;;;;4949501;29;20032;-34
2022/06/16 03:26:28;;;;;;;4.05;2.58;;;15.60;86.70;;;;;;4949544;29;20027;-34
2022/06/16 03:28:54;;;;;;;3.17;2.45;;;15.50;87.00;;;;;;4950399;29;20027;-34
2022/06/16 03:31:20;;;;;;;3.67;2.53;;;15.50;87.00;;;;;;4948960;28;20047;-34
2022/06/16 03:33:45;;;;;;;5.00;2.95;;;15.50;87.10;;;;;;4949411;28;20031;-34
2022/06/16 03:36:12;;;;;;;4.32;3.00;;;15.40;87.30;;;;;;4950518;29;20023;-35
2022/06/16 03:41:03;;;;;;;4.13;2.90;;;15.40;87.70;;;;;;4950545;29;20715;-33
2022/06/16 03:43:29;;;;;;;4.57;2.70;;;15.40;87.90;;;;;;4949246;29;20030;-33
2022/06/16 03:45:54;;;;;;;4.47;2.90;;;15.40;88.00;;;;;;4949230;29;20089;-33
2022/06/16 03:48:20;;;;;;;4.22;3.00;;;15.40;88.20;;;;;;4949478;29;20027;-34
2022/06/16 03:50:46;;;;;;;5.53;2.90;;;15.40;88.40;;;;;;4949720;29;20147;-33
2022/06/16 03:53:11;;;;;;;3.63;2.65;;;15.30;88.50;;;;;;4948911;29;20015;-33
2022/06/16 03:55:37;;;;;;;3.47;2.47;;;15.30;89.10;;;;;;4948834;28;20057;-34
2022/06/16 03:58:03;;;;;;;5.15;2.97;;;15.30;88.40;;;;;;4949899;29;20551;-34
2022/06/16 04:00:29;;;;;;;7.30;3.10;;;15.30;88.60;;;;;;4947288;28;20034;-35
2022/06/16 04:05:40;;;;;;;3.85;2.60;;;15.30;88.50;;;;;;4949429;29;20450;-34
2022/06/16 04:08:06;;;;;;;3.40;2.80;;;15.30;88.50;;;;;;4948783;28;20419;-33
2022/06/16 04:10:32;;;;;;;3.78;2.55;;;15.30;88.70;;;;;;4948234;28;20155;-35
2022/06/16 04:12:58;;;;;;;4.05;2.33;;;15.30;88.70;;;;;;4949639;29;20073;-34
2022/06/16 04:15:23;;;;;;;3.42;2.55;;;15.30;88.70;;;;;;4948595;29;20027;-34
2022/06/16 04:17:49;;;;;;;3.30;2.60;;;15.30;88.80;;;;;;4949255;29;20073;-35
2022/06/16 04:20:14;;;;;;;4.53;2.70;;;15.30;88.70;;;;;;4948205;29;20118;-34
2022/06/16 04:22:41;;;;;;;2.40;2.20;;;15.40;88.90;;;;;;4949041;29;20023;-34
2022/06/16 04:25:12;;;;;;;4.35;2.60;;;15.30;88.80;;;;;;4949255;29;20330;-33
2022/06/16 04:27:39;;;;;;;2.60;2.40;;;15.30;89.00;;;;;;4948328;28;20093;-35
2022/06/16 04:30:05;;;;;;;3.53;2.10;;;15.30;89.10;;;;;;4949591;29;20354;-34
2022/06/16 04:32:31;;;;;;;4.28;2.63;;;15.20;89.10;;;;;;4948531;29;20031;-35
2022/06/16 04:34:56;;;;;;;2.60;2.40;;;15.20;89.20;;;;;;4948267;29;20035;-34
2022/06/16 04:37:22;;;;;;;3.80;2.28;;;15.20;89.30;;;;;;4948934;29;20030;-33
2022/06/16 04:39:47;;;;;;;2.63;2.38;;;15.20;89.30;;;;;;4948692;29;20114;-34
2022/06/16 04:42:13;;;;;;;3.72;2.50;;;15.20;89.40;;;;;;4948148;28;20061;-34
2022/06/16 04:44:40;;;;;;;3.70;2.55;;;15.20;89.60;;;;;;4949018;29;20034;-34
2022/06/16 04:47:07;;;;;;;2.58;1.98;;;15.20;89.60;;;;;;4948361;28;20027;-33
2022/06/16 04:49:33;;;;;;;4.47;2.67;;;15.30;89.60;;;;;;4947280;28;20503;-34
2022/06/16 04:51:59;;;;;;;3.40;1.90;;;15.30;89.60;;;;;;4949156;29;20035;-34
2022/06/16 04:54:25;;;;;;;4.93;2.70;;;15.40;89.60;;;;;;4948654;28;20027;-34
2022/06/16 04:56:51;;;;;;;4.03;2.47;;;15.40;89.80;;;;;;4947458;29;20478;-34
2022/06/16 04:59:17;;;;;;;3.40;2.30;;;15.30;89.80;;;;;;4948338;28;20457;-34
2022/06/16 05:01:42;;;;;;;3.72;2.13;;;15.40;89.90;;;;;;4948277;29;20114;-34
2022/06/16 05:04:08;;;;;;;2.95;2.20;;;15.40;90.00;;;;;;4947949;29;20035;-34
2022/06/16 05:06:34;;;;;;;2.38;1.88;;;15.40;90.00;;;;;;4948446;28;20514;-34
2022/06/16 05:08:59;;;;;;;3.90;2.20;;;15.40;90.00;;;;;;4948564;29;20415;-35
2022/06/16 05:11:25;;;;;;;4.60;2.20;;;15.40;90.00;;;;;;4946350;28;20035;-34
2022/06/16 05:13:50;;;;;;;3.47;2.40;;;15.40;90.10;;;;;;4948564;29;20333;-34
2022/06/16 05:16:16;;;;;;;2.65;1.80;;;15.40;90.20;;;;;;4947564;29;20043;-34
2022/06/16 05:18:41;;;;;;;2.85;1.90;;;15.40;90.20;;;;;;4947079;29;20086;-35
2022/06/16 05:21:14;;;;;;;3.38;1.67;;;15.40;90.20;;;;;;4948060;28;20039;-35
2022/06/16 05:23:41;;;;;;;3.78;2.53;;;15.40;90.30;;;;;;4947435;28;20059;-33
2022/06/16 05:26:07;;;;;;;3.90;2.50;;;15.40;90.40;;;;;;4947991;28;20362;-34
2022/06/16 05:28:35;;;;;;;4.65;2.30;;;15.40;90.40;;;;;;4947644;28;20027;-33
2022/06/16 05:31:01;;;;;;;2.35;1.90;;;15.50;90.50;;;;;;4947806;28;20031;-34
2022/06/16 05:33:27;;;;;;;3.67;1.98;;;15.50;90.50;;;;;;4947063;29;20030;-33
2022/06/16 05:35:56;;;;;;;3.50;1.83;;;15.50;90.40;;;;;;4948310;28;20028;-33
2022/06/16 05:38:21;;;;;;;2.83;2.10;;;15.60;90.50;;;;;;4946598;28;20562;-34
2022/06/16 05:40:47;;;;;;;2.55;1.88;;;15.60;90.50;;;;;;4947663;29;20035;-33
2022/06/16 05:43:12;;;;;;;2.63;1.80;;;15.60;90.50;;;;;;4948137;28;20063;-34
2022/06/16 05:45:38;;;;;;;2.97;1.90;;;15.70;90.50;;;;;;4947153;29;20037;-34
2022/06/16 05:48:04;;;;;;;3.28;2.00;;;15.70;90.60;;;;;;4947704;29;20027;-33
2022/06/16 05:50:29;;;;;;;2.17;1.48;;;15.70;90.60;;;;;;4947945;29;20471;-35
2022/06/16 05:52:55;;;;;;;3.22;2.35;;;15.80;90.60;;;;;;4944435;29;20067;-33
2022/06/16 05:55:21;;;;;;;2.50;1.50;;;15.80;90.60;;;;;;4946894;28;20028;-34
2022/06/16 05:57:46;;;;;;;1.85;1.50;;;15.80;90.60;;;;;;4946342;29;20097;-34
2022/06/16 06:00:12;;;;;;;1.70;1.40;;;15.90;90.70;;;;;;4945788;29;20086;-34
2022/06/16 06:02:38;;;;;;;1.85;1.33;;;15.90;90.70;;;;;;4946184;28;20027;-34
2022/06/16 06:05:04;;;;;;;2.10;1.20;;;15.90;90.60;;;;;;4947562;29;20075;-34
2022/06/16 06:16:25;;;;;;;1.45;1.00;;;16.00;90.60;;;;;;4945422;28;20509;-33
2022/06/16 06:18:27;;;;;;;1.85;1.10;;;16.20;90.40;;;;;;4945563;29;20097;-33
2022/06/16 06:20:53;;;;;;;2.50;1.13;;;16.30;90.30;;;;;;4946604;29;20031;-34
2022/06/16 06:23:19;;;;;;;2.50;1.23;;;16.30;90.10;;;;;;4946274;28;20033;-33
2022/06/16 06:25:44;;;;;;;2.40;1.00;;;16.40;89.90;;;;;;4950688;29;20519;-35
2022/06/16 06:28:24;;;;;;;1.83;1.02;;;16.50;89.40;;;;;;4950329;29;20026;-34
2022/06/16 06:30:50;;;;;;;2.45;1.25;;;16.50;89.10;;;;;;4948745;29;20486;-34
2022/06/16 06:33:15;;;;;;;3.08;1.30;;;16.50;88.80;;;;;;4950498;29;20031;-35
2022/06/16 06:35:41;;;;;;;2.08;1.15;;;16.60;88.60;;;;;;4950319;28;20118;-34
2022/06/16 06:38:07;;;;;;;2.40;1.48;;;16.60;88.40;;;;;;4950528;28;20058;-35
2022/06/16 06:40:35;;;;;;;2.55;1.30;;;16.60;88.40;;;;;;4948595;28;20790;-33
2022/06/16 06:43:01;;;;;;;2.45;1.10;;;16.70;88.40;;;;;;4949469;28;20027;-32
2022/06/16 06:45:27;;;;;;;1.80;1.00;;;16.80;87.70;;;;;;4949566;28;20042;-34
2022/06/16 06:47:54;;;;;;;2.20;0.90;;;16.80;87.50;;;;;;4950053;29;20031;-33
2022/06/16 06:50:33;;;;;;;2.92;0.98;;;16.80;87.30;;;;;;4949695;29;20130;-34
2022/06/16 06:53:01;;;;;;;1.50;0.90;;;16.90;87.30;;;;;;4949758;29;20514;-33
2022/06/16 06:55:28;;;;;;;2.35;0.82;;;16.90;87.10;;;;;;4949232;28;20050;-33
2022/06/16 06:57:54;;;;;;;1.77;0.80;;;16.90;87.10;;;;;;4950627;28;20035;-34
2022/06/16 07:00:22;;;;;;;1.90;0.95;;;17.00;87.00;;;;;;4950388;28;20033;-34
2022/06/16 07:02:48;;;;;;;3.30;0.98;;;17.10;86.90;;;;;;4949224;29;20066;-35
2022/06/16 07:05:13;;;;;;;2.90;0.93;;;17.10;86.70;;;;;;4949706;29;20063;-35
2022/06/16 07:07:40;;;;;;;2.30;0.70;;;17.20;85.00;;;;;;4950243;28;20058;-34
2022/06/16 07:10:08;;;;;;;1.83;0.80;;;17.20;85.50;;;;;;4949166;29;20039;-32
2022/06/16 07:12:34;;;;;;;1.05;0.90;;;17.30;85.00;;;;;;4949737;28;20451;-34
2022/06/16 07:15:00;;;;;;;1.80;0.90;;;17.30;84.40;;;;;;4950076;28;20042;-35
2022/06/16 07:17:26;;;;;;;1.13;0.70;;;17.40;84.70;;;;;;4948839;28;20019;-34
2022/06/16 07:19:55;;;;;;;1.27;0.70;;;17.40;84.70;;;;;;4949074;29;20497;-33
2022/06/16 07:22:21;;;;;;;1.42;0.90;;;17.50;84.80;;;;;;4946507;29;20106;-35
2022/06/16 07:24:48;;;;;;;1.15;0.70;;;17.50;84.20;;;;;;4949322;29;20436;-34
2022/06/16 07:27:16;;;;;;;1.73;0.80;;;17.60;84.20;;;;;;4949197;28;20058;-34
2022/06/16 07:29:41;;;;;;;1.67;0.77;;;17.60;83.50;;;;;;4949922;29;20039;-33
2022/06/16 07:32:07;;;;;;;1.27;0.90;;;17.70;82.60;;;;;;4949947;29;20032;-35
2022/06/16 07:34:33;;;;;;;1.42;0.60;;;17.70;82.90;;;;;;4949464;28;20033;-34
2022/06/16 07:36:59;;;;;;;1.33;0.50;;;17.80;83.00;;;;;;4949264;29;20530;-35
2022/06/16 07:39:24;;;;;;;1.25;0.60;;;17.80;82.50;;;;;;4948673;29;20403;-34
2022/06/16 07:41:50;;;;;;;1.20;0.73;;;17.90;81.80;;;;;;4949923;29;20035;-34
2022/06/16 07:44:16;;;;;;;1.38;1.20;;;17.90;80.70;;;;;;4948992;28;20031;-34
2022/06/16 07:46:44;;;;;;;1.02;0.80;;;18.00;79.20;;;;;;4948928;29;20085;-33
2022/06/16 07:49:12;;;;;;;1.65;0.80;;;18.00;80.00;;;;;;4950242;28;20459;-35
2022/06/16 07:51:39;;;;;;;1.10;0.85;;;18.10;79.60;;;;;;4948335;29;20039;-35
2022/06/16 07:54:05;;;;;;;2.30;1.00;;;18.10;79.20;;;;;;4949459;28;20027;-34
2022/06/16 07:56:31;;;;;;;2.10;0.65;;;18.20;79.10;;;;;;4948881;29;20110;-35
2022/06/16 07:58:56;;;;;;;1.17;0.75;;;18.20;79.30;;;;;;4952352;28;20031;-33
2022/06/16 08:01:22;;;;;;;2.60;0.95;;;18.30;79.40;;;;;;4956830;28;20027;-34
2022/06/16 08:03:47;;;;;;;1.80;1.00;;;18.30;79.30;;;;;;4951524;28;20428;-34
2022/06/16 08:06:16;;;;;;;4.63;1.00;;;18.40;79.80;;;;;;4950618;28;20027;-33
2022/06/16 08:08:43;;;;;;;2.15;1.13;;;18.40;79.00;;;;;;4956393;28;20027;-34
2022/06/16 08:13:56;;;;;;;3.03;1.20;;;18.50;78.40;;;;;;4947724;28;20046;-33
2022/06/16 08:16:21;;;;;;;3.45;1.20;;;18.50;78.70;;;;;;4947072;28;20085;-34
2022/06/16 08:18:47;;;;;;;1.75;1.10;;;18.50;78.90;;;;;;4947320;29;20019;-33
2022/06/16 08:21:13;;;;;;;1.20;1.10;;;18.60;79.10;;;;;;4946526;28;20372;-33
2022/06/16 08:23:38;;;;;;;2.85;1.08;;;18.60;79.20;;;;;;4947004;28;20092;-34
2022/06/16 08:26:04;;;;;;;2.25;1.23;;;18.70;79.20;;;;;;4947550;29;20027;-36
2022/06/16 08:28:32;;;;;;;2.03;1.10;;;18.70;79.00;;;;;;4947338;29;20023;-34
2022/06/16 08:30:57;;;;;;;3.33;1.15;;;18.70;79.10;;;;;;4947558;28;20074;-34
2022/06/16 08:33:23;;;;;;;2.65;1.02;;;18.70;78.80;;;;;;4948250;28;20059;-35
2022/06/16 08:35:49;;;;;;;1.95;1.20;;;18.80;78.90;;;;;;4948867;28;20035;-34
2022/06/16 08:38:14;;;;;;;2.25;1.20;;;18.90;79.00;;;;;;4948505;28;20031;-34
2022/06/16 08:40:51;;;;;;;2.80;1.42;;;18.90;79.50;;;;;;4947927;29;20039;-34
2022/06/16 08:43:27;;;;;;;2.80;1.10;;;18.90;78.60;;;;;;4948251;28;20031;-34
2022/06/16 08:46:04;;;;;;;1.75;1.10;;;19.00;78.60;;;;;;4948880;28;20035;-34
2022/06/16 08:48:40;;;;;;;1.42;1.00;;;19.10;78.70;;;;;;4947480;29;20023;-34
2022/06/16 08:51:22;;;;;;;2.38;1.23;;;19.20;78.60;;;;;;4948590;29;20315;-33
2022/06/16 08:53:57;;;;;;;2.85;1.13;;;19.20;78.40;;;;;;4948209;28;20391;-34
2022/06/16 08:56:37;;;;;;;1.55;1.10;;;19.20;78.40;;;;;;4947750;29;20855;-34
2022/06/16 08:59:34;;;;;;;2.13;1.10;;;19.20;78.50;;;;;;4948284;29;20115;-34
2022/06/16 09:01:59;;;;;;;1.70;1.27;;;19.20;79.10;;;;;;4947535;28;20102;-34
2022/06/16 09:04:39;;;;;;;1.65;1.10;;;19.30;78.30;;;;;;4947754;29;20027;-34
2022/06/16 09:07:30;;;;;;;1.85;1.20;;;19.30;78.50;;;;;;4948324;28;20391;-34
2022/06/16 09:10:17;;;;;;;1.92;0.82;;;19.30;78.60;;;;;;4947684;29;20042;-33
2022/06/16 09:12:54;;;;;;;1.77;1.00;;;19.30;78.50;;;;;;4948524;28;20368;-33
2022/06/16 09:15:22;;;;;;;1.45;1.00;;;19.50;78.70;;;;;;4947357;29;20042;-34
2022/06/16 09:18:08;;;;;;;1.67;0.88;;;19.60;78.60;;;;;;4947183;28;20354;-33
2022/06/16 09:20:52;;;;;;;1.38;0.90;;;19.60;78.60;;;;;;4947075;29;20084;-34
2022/06/16 09:23:30;;;;;;;1.50;0.90;;;19.60;78.80;;;;;;4928041;29;20038;-34
2022/06/16 09:26:14;;;;;;;2.10;1.30;;;19.70;79.00;;;;;;4945564;29;20071;-33
2022/06/16 09:28:55;;;;;;;3.17;1.73;;;19.70;78.00;;;;;;4947960;28;20085;-33
2022/06/16 09:31:27;;;;;;;2.63;1.55;;;19.80;78.10;;;;;;4946854;29;20153;-34
2022/06/16 09:34:04;;;;;;;2.58;1.50;;;19.80;77.90;;;;;;4948058;29;20028;-35
2022/06/16 09:36:39;;;;;;;2.10;1.40;;;20.00;77.80;;;;;;4947265;29;20057;-34
2022/06/16 09:39:28;;;;;;;1.13;1.02;;;20.00;77.70;;;;;;4948174;28;20019;-34
2022/06/16 09:45:10;;;;;;;3.90;1.35;;;20.10;78.00;;;;;;4947080;29;20526;-34
2022/06/16 09:47:45;;;;;;;2.72;1.05;;;20.10;77.90;;;;;;4947236;28;20031;-35
2022/06/16 09:50:17;;;;;;;1.40;1.10;;;20.10;77.90;;;;;;4947888;28;20062;-34
2022/06/16 09:53:07;;;;;;;1.10;0.85;;;20.10;78.10;;;;;;4946615;29;20037;-35
2022/06/16 09:55:38;;;;;;;3.47;1.10;;;20.20;78.30;;;;;;4935999;29;20043;-34
2022/06/16 09:58:20;;;;;;;1.88;1.05;;;20.20;78.40;;;;;;4947028;28;20126;-34
2022/06/16 10:00:47;;;;;;;0.90;0.88;;;20.20;78.50;;;;;;4951702;28;20110;-34
2022/06/16 10:03:38;;;;;;;1.48;0.95;;;20.20;78.50;;;;;;4951971;29;20446;-35
2022/06/16 10:06:37;;;;;;;1.42;1.20;;;20.30;78.40;;;;;;4950920;29;20035;-35
2022/06/16 10:09:18;;;;;;;2.35;1.27;;;20.40;78.40;;;;;;4951859;29;20678;-35
2022/06/16 10:12:00;;;;;;;2.55;1.50;;;20.40;78.30;;;;;;4950930;28;20050;-33
2022/06/16 10:14:47;;;;;;;2.55;1.38;;;20.50;77.40;;;;;;4950967;29;20026;-34
2022/06/16 10:17:17;;;;;;;1.92;1.10;;;20.60;77.50;;;;;;4951224;28;20033;-34
2022/06/16 10:19:45;;;;;;;2.83;1.52;;;20.60;77.50;;;;;;4950505;29;20035;-33
2022/06/16 10:22:14;;;;;;;2.33;1.20;;;20.70;77.20;;;;;;4951390;28;20119;-33
2022/06/16 10:25:04;;;;;;;1.52;1.05;;;20.70;77.30;;;;;;4951164;28;20122;-35
2022/06/16 10:27:45;;;;;;;3.10;1.60;;;20.70;77.30;;;;;;4949669;28;20461;-34
2022/06/16 10:30:22;;;;;;;1.90;1.30;;;20.70;77.20;;;;;;4951165;28;20031;-35
2022/06/16 10:33:16;;;;;;;1.60;1.00;;;20.80;77.30;;;;;;4950453;28;20442;-34
2022/06/16 10:35:50;;;;;;;2.20;1.33;;;20.80;77.40;;;;;;4931480;29;20032;-34
2022/06/16 10:38:35;;;;;;;2.17;1.30;;;20.80;77.20;;;;;;4947197;29;20435;-34
2022/06/16 10:41:04;;;;;;;3.33;1.60;;;20.90;77.40;;;;;;4931213;29;20023;-34
2022/06/16 10:43:39;;;;;;;1.83;1.30;;;20.90;77.20;;;;;;4947114;29;20015;-34
2022/06/16 10:46:18;;;;;;;2.90;1.75;;;20.90;77.10;;;;;;4950894;28;20060;-34
2022/06/16 10:48:54;;;;;;;1.55;1.27;;;21.00;77.00;;;;;;4949720;29;20545;-35
2022/06/16 10:51:22;;;;;;;2.30;1.30;;;21.00;76.90;;;;;;4950458;29;20344;-35
2022/06/16 10:54:10;;;;;;;2.35;1.30;;;21.10;76.40;;;;;;4949938;29;20039;-34
2022/06/16 10:56:36;;;;;;;3.28;1.27;;;21.20;76.20;;;;;;4950583;29;20058;-34
2022/06/16 10:59:04;;;;;;;3.50;1.30;;;21.30;76.20;;;;;;4950543;29;20035;-34
2022/06/16 11:01:53;;;;;;;2.85;1.60;;;21.40;75.90;;;;;;4949584;29;20106;-34
2022/06/16 11:04:22;;;;;;;2.72;1.60;;;21.50;75.60;;;;;;4949852;28;20553;-34
2022/06/16 11:06:54;;;;;;;2.35;1.30;;;21.50;74.70;;;;;;4950511;28;20102;-34
2022/06/16 11:09:23;;;;;;;1.67;1.20;;;21.50;74.80;;;;;;4949340;28;20113;-35
2022/06/16 11:12:02;;;;;;;1.98;1.35;;;21.60;74.60;;;;;;4950929;29;20047;-33
2022/06/16 11:14:45;;;;;;;1.95;1.30;;;21.60;74.90;;;;;;4949556;29;20135;-34
2022/06/16 11:17:25;;;;;;;2.17;1.20;;;21.60;75.10;;;;;;4946719;29;20020;-34
2022/06/16 11:20:10;;;;;;;1.83;1.30;;;21.60;75.20;;;;;;4950076;28;20623;-34
2022/06/16 11:22:40;;;;;;;2.80;1.35;;;21.60;75.10;;;;;;4949276;29;20019;-34
2022/06/16 11:25:32;;;;;;;1.63;0.98;;;21.60;75.10;;;;;;4950070;28;20380;-34
2022/06/16 11:28:13;;;;;;;2.45;1.08;;;21.70;75.30;;;;;;4950168;28;20395;-33
2022/06/16 11:30:40;;;;;;;2.30;1.10;;;21.70;75.40;;;;;;4949069;28;20062;-33
2022/06/16 11:36:57;;;;;;;2.88;1.10;;;21.70;75.20;;;;;;4949651;29;20498;-34
2022/06/16 11:39:44;;;;;;;1.00;0.88;;;21.80;75.30;;;;;;4949462;28;20023;-34
2022/06/16 11:42:47;;;;;;;2.03;1.30;;;21.90;75.30;;;;;;4949686;28;20030;-33
2022/06/16 11:45:24;;;;;;;2.05;1.23;;;22.00;74.90;;;;;;4949464;28;20506;-34
2022/06/16 11:47:59;;;;;;;2.70;1.38;;;21.90;74.80;;;;;;4950320;29;20459;-35
2022/06/16 11:50:46;;;;;;;1.63;1.30;;;22.00;74.90;;;;;;4948524;29;20102;-36
2022/06/16 11:53:50;;;;;;;2.30;1.08;;;22.00;74.90;;;;;;4931015;29;20039;-34
2022/06/16 11:56:24;;;;;;;1.15;1.02;;;22.20;75.00;;;;;;4949670;29;20048;-34
2022/06/16 11:59:26;;;;;;;1.45;1.17;;;22.20;74.90;;;;;;4949137;28;20047;-35
2022/06/16 12:02:00;;;;;;;4.15;1.55;;;22.30;74.70;;;;;;4948102;29;20035;-35
2022/06/16 12:04:53;;;;;;;1.38;1.20;;;22.30;73.70;;;;;;4948211;28;20401;-35
2022/06/16 12:07:31;;;;;;;1.83;1.20;;;22.30;73.80;;;;;;4938974;29;20042;-35
2022/06/16 12:10:21;;;;;;;1.75;1.27;;;22.30;74.70;;;;;;4950228;28;20039;-35
2022/06/16 12:13:12;;;;;;;2.13;1.35;;;22.40;73.70;;;;;;4940858;29;20102;-34
2022/06/16 12:15:59;;;;;;;3.13;1.50;;;22.40;73.60;;;;;;4948838;29;20477;-34
2022/06/16 12:18:43;;;;;;;2.28;1.20;;;22.50;72.80;;;;;;4947933;28;20272;-34
2022/06/16 12:21:37;;;;;;;2.70;1.42;;;22.60;73.00;;;;;;4948280;28;20027;-35
2022/06/16 12:24:44;;;;;;;1.40;1.00;;;22.70;72.40;;;;;;4949433;28;20038;-34
2022/06/16 12:27:26;;;;;;;1.85;1.38;;;22.80;72.30;;;;;;4937849;29;20043;-34
2022/06/16 12:30:18;;;;;;;2.42;1.42;;;22.90;72.40;;;;;;4948863;28;20050;-34
2022/06/16 12:33:06;;;;;;;1.50;1.40;;;23.00;72.20;;;;;;4946532;29;20039;-34
2022/06/16 12:35:36;;;;;;;1.45;1.08;;;23.00;72.40;;;;;;4948363;28;20360;-35
2022/06/16 12:38:28;;;;;;;2.30;1.20;;;23.00;72.20;;;;;;4949210;29;20110;-35
2022/06/16 12:41:00;;;;;;;2.53;1.70;;;23.10;71.20;;;;;;4944922;29;20480;-34
2022/06/16 12:43:36;;;;;;;1.58;1.27;;;23.20;71.00;;;;;;4947720;28;20444;-34
2022/06/16 12:46:05;;;;;;;1.35;1.05;;;23.30;71.30;;;;;;4948727;29;20066;-35
2022/06/16 12:48:54;;;;;;;2.85;1.58;;;23.30;71.40;;;;;;4947333;28;20067;-34
2022/06/16 12:51:22;;;;;;;2.10;1.40;;;23.30;70.60;;;;;;4937175;29;20039;-34
2022/06/16 12:54:00;;;;;;;1.70;1.35;;;23.40;70.90;;;;;;4948074;29;20030;-34
2022/06/16 12:56:32;;;;;;;1.13;1.00;;;23.40;70.90;;;;;;4947590;28;20395;-36
2022/06/16 12:59:24;;;;;;;1.65;1.10;;;23.50;71.90;;;;;;4948517;29;20232;-34
2022/06/16 13:01:53;;;;;;;2.25;1.33;;;23.60;71.40;;;;;;4947507;28;20027;-41
2022/06/16 13:04:25;;;;;;;1.30;1.20;;;23.70;71.00;;;;;;4948500;28;20027;-34
2022/06/16 13:06:52;;;;;;;1.05;1.00;;;23.80;70.80;;;;;;4948019;29;20097;-34
2022/06/16 13:09:18;;;;;;;1.40;1.25;;;23.90;70.90;;;;;;4947333;29;20368;-33
2022/06/16 13:11:46;;;;;;;2.00;1.30;;;23.90;70.60;;;;;;4948413;29;20046;-34
2022/06/16 13:14:19;;;;;;;1.55;1.10;;;24.00;70.90;;;;;;4948695;28;20023;-33
2022/06/16 13:16:49;;;;;;;1.70;1.10;;;24.10;70.70;;;;;;4947235;29;20031;-35
2022/06/16 13:19:25;;;;;;;1.65;1.23;;;24.20;70.70;;;;;;4948080;28;20382;-35
2022/06/16 13:21:55;;;;;;;1.23;1.00;;;24.30;71.00;;;;;;4947202;28;20143;-34
2022/06/16 13:24:45;;;;;;;2.13;1.40;;;24.50;70.70;;;;;;4946961;29;20059;-35
2022/06/16 13:27:24;;;;;;;2.30;1.20;;;24.60;70.30;;;;;;4948040;28;20810;-34
2022/06/16 13:29:50;;;;;;;1.30;1.20;;;24.80;70.40;;;;;;4947438;28;20165;-37
2022/06/16 13:32:37;;;;;;;1.85;1.13;;;24.90;70.20;;;;;;4947144;28;20114;-35
2022/06/16 13:35:14;;;;;;;1.40;1.30;;;24.90;69.90;;;;;;4946540;29;20079;-36
2022/06/16 13:38:07;;;;;;;1.42;1.17;;;25.00;69.80;;;;;;4946525;29;20551;-33
2022/06/16 13:40:38;;;;;;;1.20;1.10;;;25.10;69.80;;;;;;4938296;29;20121;-34
2022/06/16 13:43:11;;;;;;;1.30;1.20;;;25.10;69.70;;;;;;4946898;28;20038;-34
2022/06/16 13:45:39;;;;;;;2.60;1.45;;;25.20;69.70;;;;;;4937204;29;20027;-35
2022/06/16 13:48:13;;;;;;;1.48;1.17;;;25.20;69.10;;;;;;4947965;28;20042;-35